Webcam Flughafen St.Gallen-Altenrhein

Live-Bilder und Zeitraffer LSZR / ACH.

 

Live aus Altenrhein
LIVE
LSZR 111750Z VRB01KT CAVOK 02/M03 Q1023 NOSIG RMK N
Zeitraffer heute
2018-12-11 00:13:54
LSZR 102250Z AUTO 31013KT 280V350 4300 RA BR FEW009 BKN015 04/02 Q1023
Zeitraffer gestern
2018-12-10 00:14:23
LSZR 092250Z AUTO 27012KT 9999 SCT041 BKN047 06/03 Q1017 REDZ
Zeitraffer vor 3 Tagen
2018-12-08 00:14:32
LSZR 072250Z AUTO 27014KT 9999 -RA FEW018 SCT029 BKN034 08/05 Q1012